sensor_id;sensor_type;location;lat;lon;timestamp;pressure;altitude;pressure_sealevel;temperature;humidity
7026;BME280;3554;42.132;24.786;2023-04-09T00:01:02;97033.94;;;8.05;100.00
7026;BME280;3554;42.132;24.786;2023-04-09T00:03:29;97003.81;;;8.01;100.00
7026;BME280;3554;42.132;24.786;2023-04-09T00:05:57;96927.50;;;7.50;100.00
7026;BME280;3554;42.132;24.786;2023-04-09T00:08:24;96968.09;;;8.03;100.00
7026;BME280;3554;42.132;24.786;2023-04-09T00:10:52;96981.00;;;7.92;100.00
7026;BME280;3554;42.132;24.786;2023-04-09T00:13:19;96961.47;;;7.74;100.00
7026;BME280;3554;42.132;24.786;2023-04-09T00:15:46;96923.16;;;7.64;100.00
7026;BME280;3554;42.132;24.786;2023-04-09T00:18:13;96963.84;;;7.77;100.00
7026;BME280;3554;42.132;24.786;2023-04-09T00:20:40;97031.75;;;7.74;100.00
7026;BME280;3554;42.132;24.786;2023-04-09T00:23:09;97067.66;;;7.82;100.00
7026;BME280;3554;42.132;24.786;2023-04-09T00:25:35;97075.19;;;7.86;100.00
7026;BME280;3554;42.132;24.786;2023-04-09T00:28:02;97087.69;;;7.81;100.00
7026;BME280;3554;42.132;24.786;2023-04-09T00:30:29;97074.31;;;7.73;100.00
7026;BME280;3554;42.132;24.786;2023-04-09T00:32:56;97047.88;;;7.67;100.00
7026;BME280;3554;42.132;24.786;2023-04-09T00:35:23;97047.66;;;7.70;100.00
7026;BME280;3554;42.132;24.786;2023-04-09T00:37:50;97037.66;;;7.64;100.00
7026;BME280;3554;42.132;24.786;2023-04-09T00:40:18;97023.38;;;7.56;100.00
7026;BME280;3554;42.132;24.786;2023-04-09T00:42:45;96975.59;;;7.57;100.00
7026;BME280;3554;42.132;24.786;2023-04-09T00:45:12;96825.38;;;6.84;100.00
7026;BME280;3554;42.132;24.786;2023-04-09T00:47:39;96913.13;;;7.57;100.00
7026;BME280;3554;42.132;24.786;2023-04-09T00:50:08;96924.78;;;7.52;100.00
7026;BME280;3554;42.132;24.786;2023-04-09T00:52:35;96914.50;;;7.50;100.00
7026;BME280;3554;42.132;24.786;2023-04-09T00:55:04;96899.63;;;7.52;100.00
7026;BME280;3554;42.132;24.786;2023-04-09T00:57:32;96869.00;;;7.56;100.00
7026;BME280;3554;42.132;24.786;2023-04-09T00:59:59;96877.31;;;7.48;100.00
7026;BME280;3554;42.132;24.786;2023-04-09T01:02:26;96853.69;;;7.51;100.00
7026;BME280;3554;42.132;24.786;2023-04-09T01:04:53;96823.41;;;7.50;100.00
7026;BME280;3554;42.132;24.786;2023-04-09T01:07:25;96817.81;;;7.44;100.00
7026;BME280;3554;42.132;24.786;2023-04-09T01:10:00;96809.91;;;7.33;100.00
7026;BME280;3554;42.132;24.786;2023-04-09T01:12:37;96800.41;;;7.32;100.00
7026;BME280;3554;42.132;24.786;2023-04-09T01:15:08;96780.66;;;7.29;100.00
7026;BME280;3554;42.132;24.786;2023-04-09T01:17:40;96791.47;;;7.23;100.00
7026;BME280;3554;42.132;24.786;2023-04-09T01:20:17;96756.94;;;7.09;100.00
7026;BME280;3554;42.132;24.786;2023-04-09T01:22:51;96770.47;;;7.14;100.00
7026;BME280;3554;42.132;24.786;2023-04-09T01:25:32;96779.84;;;7.04;100.00
7026;BME280;3554;42.132;24.786;2023-04-09T01:28:16;96787.13;;;6.99;100.00
7026;BME280;3554;42.132;24.786;2023-04-09T01:30:47;96797.63;;;7.10;100.00
7026;BME280;3554;42.132;24.786;2023-04-09T01:33:15;96787.63;;;7.04;100.00
7026;BME280;3554;42.132;24.786;2023-04-09T01:35:45;96790.97;;;7.18;100.00
7026;BME280;3554;42.132;24.786;2023-04-09T01:38:13;96775.78;;;7.12;100.00
7026;BME280;3554;42.132;24.786;2023-04-09T01:40:41;96738.97;;;7.06;100.00
7026;BME280;3554;42.132;24.786;2023-04-09T01:43:09;96719.19;;;7.03;100.00
7026;BME280;3554;42.132;24.786;2023-04-09T01:45:38;96736.69;;;7.01;100.00
7026;BME280;3554;42.132;24.786;2023-04-09T01:48:06;96732.41;;;7.00;100.00
7026;BME280;3554;42.132;24.786;2023-04-09T01:50:32;96718.50;;;6.89;100.00
7026;BME280;3554;42.132;24.786;2023-04-09T01:53:00;96726.50;;;6.86;100.00
7026;BME280;3554;42.132;24.786;2023-04-09T01:55:27;96711.22;;;6.94;100.00
7026;BME280;3554;42.132;24.786;2023-04-09T01:57:54;96655.06;;;6.79;100.00
7026;BME280;3554;42.132;24.786;2023-04-09T02:00:21;96663.47;;;6.95;100.00
7026;BME280;3554;42.132;24.786;2023-04-09T02:02:54;96668.06;;;6.91;100.00
7026;BME280;3554;42.132;24.786;2023-04-09T02:05:23;96636.16;;;6.77;100.00
7026;BME280;3554;42.132;24.786;2023-04-09T02:07:53;96632.53;;;6.79;100.00
7026;BME280;3554;42.132;24.786;2023-04-09T02:10:23;96628.03;;;6.94;100.00
7026;BME280;3554;42.132;24.786;2023-04-09T02:12:52;96636.03;;;6.78;100.00
7026;BME280;3554;42.132;24.786;2023-04-09T02:15:21;96643.66;;;6.81;100.00
7026;BME280;3554;42.132;24.786;2023-04-09T02:17:49;96621.09;;;6.82;100.00
7026;BME280;3554;42.132;24.786;2023-04-09T02:20:17;96663.19;;;6.87;100.00
7026;BME280;3554;42.132;24.786;2023-04-09T02:22:44;96669.63;;;6.81;100.00
7026;BME280;3554;42.132;24.786;2023-04-09T02:25:11;96664.31;;;6.83;100.00
7026;BME280;3554;42.132;24.786;2023-04-09T02:27:38;96649.97;;;6.90;100.00
7026;BME280;3554;42.132;24.786;2023-04-09T02:30:06;96633.13;;;6.83;100.00
7026;BME280;3554;42.132;24.786;2023-04-09T02:32:33;96624.63;;;6.81;100.00
7026;BME280;3554;42.132;24.786;2023-04-09T02:35:00;96627.63;;;6.75;100.00
7026;BME280;3554;42.132;24.786;2023-04-09T02:37:28;96626.59;;;6.65;100.00
7026;BME280;3554;42.132;24.786;2023-04-09T02:39:55;96641.56;;;6.86;100.00
7026;BME280;3554;42.132;24.786;2023-04-09T02:42:22;96650.81;;;6.78;100.00
7026;BME280;3554;42.132;24.786;2023-04-09T02:44:49;96684.09;;;6.73;100.00
7026;BME280;3554;42.132;24.786;2023-04-09T02:47:16;96682.41;;;6.72;100.00
7026;BME280;3554;42.132;24.786;2023-04-09T02:49:42;96720.38;;;6.74;100.00
7026;BME280;3554;42.132;24.786;2023-04-09T02:52:09;96733.25;;;6.76;100.00
7026;BME280;3554;42.132;24.786;2023-04-09T02:54:37;96739.28;;;6.76;100.00
7026;BME280;3554;42.132;24.786;2023-04-09T02:57:04;96731.38;;;6.78;100.00
7026;BME280;3554;42.132;24.786;2023-04-09T02:59:31;96715.78;;;6.53;100.00
7026;BME280;3554;42.132;24.786;2023-04-09T03:02:00;96726.72;;;6.70;100.00
7026;BME280;3554;42.132;24.786;2023-04-09T03:04:26;96727.22;;;6.63;100.00
7026;BME280;3554;42.132;24.786;2023-04-09T03:06:53;96733.78;;;6.68;100.00
7026;BME280;3554;42.132;24.786;2023-04-09T03:09:20;96757.28;;;6.79;100.00
7026;BME280;3554;42.132;24.786;2023-04-09T03:11:48;96684.38;;;6.93;100.00
7026;BME280;3554;42.132;24.786;2023-04-09T03:14:15;96704.97;;;6.96;100.00
7026;BME280;3554;42.132;24.786;2023-04-09T03:16:42;96698.63;;;6.88;100.00
7026;BME280;3554;42.132;24.786;2023-04-09T03:19:09;96683.53;;;6.93;100.00
7026;BME280;3554;42.132;24.786;2023-04-09T03:21:35;96682.13;;;6.89;100.00
7026;BME280;3554;42.132;24.786;2023-04-09T03:24:02;96662.69;;;6.82;100.00
7026;BME280;3554;42.132;24.786;2023-04-09T03:26:29;96687.72;;;6.83;100.00
7026;BME280;3554;42.132;24.786;2023-04-09T03:29:02;96690.09;;;6.86;100.00
7026;BME280;3554;42.132;24.786;2023-04-09T03:31:29;96694.69;;;6.70;100.00
7026;BME280;3554;42.132;24.786;2023-04-09T03:33:55;96717.16;;;6.71;100.00
7026;BME280;3554;42.132;24.786;2023-04-09T03:36:22;96710.59;;;6.65;100.00
7026;BME280;3554;42.132;24.786;2023-04-09T03:38:49;96693.44;;;6.75;100.00
7026;BME280;3554;42.132;24.786;2023-04-09T03:41:16;96693.94;;;6.55;100.00
7026;BME280;3554;42.132;24.786;2023-04-09T03:43:43;96714.03;;;6.66;100.00
7026;BME280;3554;42.132;24.786;2023-04-09T03:46:14;96722.25;;;6.72;100.00
7026;BME280;3554;42.132;24.786;2023-04-09T03:48:41;96728.16;;;6.87;100.00
7026;BME280;3554;42.132;24.786;2023-04-09T03:51:10;96739.91;;;6.80;100.00
7026;BME280;3554;42.132;24.786;2023-04-09T03:53:37;96755.50;;;6.80;100.00
7026;BME280;3554;42.132;24.786;2023-04-09T03:56:04;96757.06;;;6.82;100.00
7026;BME280;3554;42.132;24.786;2023-04-09T03:58:31;96777.84;;;6.82;100.00
7026;BME280;3554;42.132;24.786;2023-04-09T04:00:58;96775.34;;;6.81;100.00
7026;BME280;3554;42.132;24.786;2023-04-09T04:03:26;96753.22;;;6.88;100.00
7026;BME280;3554;42.132;24.786;2023-04-09T04:05:53;96745.81;;;6.94;100.00
7026;BME280;3554;42.132;24.786;2023-04-09T04:08:20;96721.09;;;7.01;100.00
7026;BME280;3554;42.132;24.786;2023-04-09T04:10:47;96723.47;;;7.04;100.00
7026;BME280;3554;42.132;24.786;2023-04-09T04:13:13;96723.47;;;7.04;100.00
7026;BME280;3554;42.132;24.786;2023-04-09T04:15:40;96730.44;;;6.91;100.00
7026;BME280;3554;42.132;24.786;2023-04-09T04:18:08;96726.94;;;6.80;100.00
7026;BME280;3554;42.132;24.786;2023-04-09T04:20:37;96718.69;;;6.86;100.00
7026;BME280;3554;42.132;24.786;2023-04-09T04:23:04;96728.91;;;6.89;100.00
7026;BME280;3554;42.132;24.786;2023-04-09T04:25:31;96730.78;;;6.87;100.00
7026;BME280;3554;42.132;24.786;2023-04-09T04:27:57;96748.97;;;6.87;100.00
7026;BME280;3554;42.132;24.786;2023-04-09T04:30:24;96743.25;;;6.82;100.00
7026;BME280;3554;42.132;24.786;2023-04-09T04:32:51;96763.94;;;6.96;100.00
7026;BME280;3554;42.132;24.786;2023-04-09T04:35:18;96763.94;;;6.96;100.00
7026;BME280;3554;42.132;24.786;2023-04-09T04:37:50;96757.56;;;6.75;100.00
7026;BME280;3554;42.132;24.786;2023-04-09T04:40:17;96765.59;;;6.84;100.00
7026;BME280;3554;42.132;24.786;2023-04-09T04:42:43;96772.44;;;6.98;100.00
7026;BME280;3554;42.132;24.786;2023-04-09T04:45:10;96783.06;;;6.95;100.00
7026;BME280;3554;42.132;24.786;2023-04-09T04:47:37;96777.44;;;6.88;100.00
7026;BME280;3554;42.132;24.786;2023-04-09T04:50:05;96775.03;;;6.98;100.00
7026;BME280;3554;42.132;24.786;2023-04-09T04:52:32;96777.22;;;6.91;100.00
7026;BME280;3554;42.132;24.786;2023-04-09T04:55:00;96788.47;;;6.92;100.00
7026;BME280;3554;42.132;24.786;2023-04-09T04:57:27;96796.88;;;6.83;100.00
7026;BME280;3554;42.132;24.786;2023-04-09T04:59:54;96802.38;;;6.91;100.00
7026;BME280;3554;42.132;24.786;2023-04-09T05:02:20;96785.66;;;7.07;100.00
7026;BME280;3554;42.132;24.786;2023-04-09T05:04:47;96784.19;;;7.03;100.00
7026;BME280;3554;42.132;24.786;2023-04-09T05:07:14;96799.91;;;7.02;100.00
7026;BME280;3554;42.132;24.786;2023-04-09T05:09:41;96795.97;;;7.09;100.00
7026;BME280;3554;42.132;24.786;2023-04-09T05:12:10;96779.50;;;7.33;100.00
7026;BME280;3554;42.132;24.786;2023-04-09T05:14:36;96781.91;;;7.36;100.00
7026;BME280;3554;42.132;24.786;2023-04-09T05:17:03;96791.47;;;7.48;100.00
7026;BME280;3554;42.132;24.786;2023-04-09T05:19:30;96833.09;;;7.61;100.00
7026;BME280;3554;42.132;24.786;2023-04-09T05:21:57;96865.78;;;7.65;100.00
7026;BME280;3554;42.132;24.786;2023-04-09T05:24:24;96870.25;;;7.63;100.00
7026;BME280;3554;42.132;24.786;2023-04-09T05:26:50;96947.28;;;7.66;100.00
7026;BME280;3554;42.132;24.786;2023-04-09T05:29:19;97006.69;;;7.46;100.00
7026;BME280;3554;42.132;24.786;2023-04-09T05:31:45;97051.16;;;7.43;100.00
7026;BME280;3554;42.132;24.786;2023-04-09T05:34:12;97074.66;;;7.42;100.00
7026;BME280;3554;42.132;24.786;2023-04-09T05:36:39;97084.41;;;7.65;100.00
7026;BME280;3554;42.132;24.786;2023-04-09T05:39:06;97104.09;;;7.69;100.00
7026;BME280;3554;42.132;24.786;2023-04-09T05:41:32;97127.66;;;7.80;100.00
7026;BME280;3554;42.132;24.786;2023-04-09T05:44:01;97131.66;;;7.98;100.00
7026;BME280;3554;42.132;24.786;2023-04-09T05:46:29;97155.38;;;8.20;100.00
7026;BME280;3554;42.132;24.786;2023-04-09T05:48:56;97257.91;;;8.19;100.00
7026;BME280;3554;42.132;24.786;2023-04-09T05:51:23;97307.09;;;8.38;100.00
7026;BME280;3554;42.132;24.786;2023-04-09T05:53:50;97409.47;;;8.40;100.00
7026;BME280;3554;42.132;24.786;2023-04-09T05:56:17;97478.78;;;8.56;100.00
7026;BME280;3554;42.132;24.786;2023-04-09T05:58:44;97557.66;;;8.60;100.00
7026;BME280;3554;42.132;24.786;2023-04-09T06:01:10;97609.44;;;8.66;100.00
7026;BME280;3554;42.132;24.786;2023-04-09T06:03:38;97665.50;;;8.59;100.00
7026;BME280;3554;42.132;24.786;2023-04-09T06:06:05;97753.50;;;8.70;100.00
7026;BME280;3554;42.132;24.786;2023-04-09T06:08:32;97839.84;;;8.95;100.00
7026;BME280;3554;42.132;24.786;2023-04-09T06:10:59;97922.84;;;8.88;100.00
7026;BME280;3554;42.132;24.786;2023-04-09T06:13:26;98126.94;;;9.09;100.00
7026;BME280;3554;42.132;24.786;2023-04-09T06:15:52;98285.22;;;9.10;100.00
7026;BME280;3554;42.132;24.786;2023-04-09T06:18:19;98434.22;;;9.22;100.00
7026;BME280;3554;42.132;24.786;2023-04-09T06:20:47;98528.22;;;9.22;100.00
7026;BME280;3554;42.132;24.786;2023-04-09T06:23:14;98608.19;;;8.88;100.00
7026;BME280;3554;42.132;24.786;2023-04-09T06:25:41;98646.75;;;9.00;100.00
7026;BME280;3554;42.132;24.786;2023-04-09T06:28:08;98679.28;;;9.30;100.00
7026;BME280;3554;42.132;24.786;2023-04-09T06:30:34;98755.34;;;8.84;100.00
7026;BME280;3554;42.132;24.786;2023-04-09T06:33:02;98748.16;;;8.89;100.00
7026;BME280;3554;42.132;24.786;2023-04-09T06:35:29;98736.97;;;9.25;100.00
7026;BME280;3554;42.132;24.786;2023-04-09T06:37:57;98747.81;;;9.35;100.00
7026;BME280;3554;42.132;24.786;2023-04-09T06:40:24;98810.50;;;9.35;100.00
7026;BME280;3554;42.132;24.786;2023-04-09T06:42:51;98828.97;;;9.30;100.00
7026;BME280;3554;42.132;24.786;2023-04-09T06:45:17;98831.78;;;9.26;100.00
7026;BME280;3554;42.132;24.786;2023-04-09T06:47:44;98858.81;;;9.45;100.00
7026;BME280;3554;42.132;24.786;2023-04-09T06:50:11;98872.22;;;9.56;100.00
7026;BME280;3554;42.132;24.786;2023-04-09T06:52:38;98886.78;;;9.61;100.00
7026;BME280;3554;42.132;24.786;2023-04-09T06:55:07;98918.06;;;9.63;100.00
7026;BME280;3554;42.132;24.786;2023-04-09T06:57:33;98927.28;;;9.51;100.00
7026;BME280;3554;42.132;24.786;2023-04-09T07:00:00;98975.75;;;9.79;100.00
7026;BME280;3554;42.132;24.786;2023-04-09T07:02:27;98989.63;;;9.99;100.00
7026;BME280;3554;42.132;24.786;2023-04-09T07:04:54;99023.53;;;10.01;100.00
7026;BME280;3554;42.132;24.786;2023-04-09T07:07:21;99044.59;;;9.98;100.00
7026;BME280;3554;42.132;24.786;2023-04-09T07:09:49;99052.50;;;9.96;100.00
7026;BME280;3554;42.132;24.786;2023-04-09T07:12:26;99072.91;;;10.28;100.00
7026;BME280;3554;42.132;24.786;2023-04-09T07:14:56;99031.19;;;9.85;100.00
7026;BME280;3554;42.132;24.786;2023-04-09T07:17:23;99127.69;;;10.31;100.00
7026;BME280;3554;42.132;24.786;2023-04-09T07:19:50;99133.00;;;10.68;100.00
7026;BME280;3554;42.132;24.786;2023-04-09T07:22:19;99153.44;;;10.60;100.00
7026;BME280;3554;42.132;24.786;2023-04-09T07:24:46;99170.44;;;10.70;100.00
7026;BME280;3554;42.132;24.786;2023-04-09T07:27:18;99192.78;;;10.98;100.00
7026;BME280;3554;42.132;24.786;2023-04-09T07:29:46;99223.72;;;11.08;100.00
7026;BME280;3554;42.132;24.786;2023-04-09T07:32:13;99238.38;;;11.31;100.00
7026;BME280;3554;42.132;24.786;2023-04-09T07:34:40;99267.41;;;11.83;100.00
7026;BME280;3554;42.132;24.786;2023-04-09T07:37:07;99290.34;;;11.78;100.00
7026;BME280;3554;42.132;24.786;2023-04-09T07:39:34;99290.56;;;12.28;100.00
7026;BME280;3554;42.132;24.786;2023-04-09T07:42:01;99307.91;;;12.66;100.00
7026;BME280;3554;42.132;24.786;2023-04-09T07:44:28;99324.28;;;12.71;100.00
7026;BME280;3554;42.132;24.786;2023-04-09T07:46:57;99378.75;;;12.14;100.00
7026;BME280;3554;42.132;24.786;2023-04-09T07:49:24;99371.25;;;12.06;100.00
7026;BME280;3554;42.132;24.786;2023-04-09T07:51:50;99370.66;;;12.18;100.00
7026;BME280;3554;42.132;24.786;2023-04-09T07:54:17;99367.63;;;12.44;100.00
7026;BME280;3554;42.132;24.786;2023-04-09T07:56:45;99388.19;;;12.53;100.00
7026;BME280;3554;42.132;24.786;2023-04-09T07:59:12;99401.44;;;12.15;100.00
7026;BME280;3554;42.132;24.786;2023-04-09T08:01:40;99401.13;;;12.39;100.00
7026;BME280;3554;42.132;24.786;2023-04-09T08:04:08;99395.25;;;12.53;100.00
7026;BME280;3554;42.132;24.786;2023-04-09T08:06:37;99391.59;;;12.91;100.00
7026;BME280;3554;42.132;24.786;2023-04-09T08:09:04;99416.44;;;13.03;100.00
7026;BME280;3554;42.132;24.786;2023-04-09T08:11:31;99434.91;;;12.82;100.00
7026;BME280;3554;42.132;24.786;2023-04-09T08:13:58;99446.19;;;12.30;100.00
7026;BME280;3554;42.132;24.786;2023-04-09T08:16:26;99431.81;;;12.39;100.00
7026;BME280;3554;42.132;24.786;2023-04-09T08:18:54;99429.31;;;12.54;100.00
7026;BME280;3554;42.132;24.786;2023-04-09T08:21:22;99432.75;;;12.55;100.00
7026;BME280;3554;42.132;24.786;2023-04-09T08:23:49;99472.06;;;12.75;100.00
7026;BME280;3554;42.132;24.786;2023-04-09T08:26:16;99490.97;;;12.46;100.00
7026;BME280;3554;42.132;24.786;2023-04-09T08:28:43;99492.25;;;12.56;100.00
7026;BME280;3554;42.132;24.786;2023-04-09T08:31:10;99495.50;;;12.61;100.00
7026;BME280;3554;42.132;24.786;2023-04-09T08:33:37;99497.72;;;12.87;100.00
7026;BME280;3554;42.132;24.786;2023-04-09T08:36:07;99515.84;;;13.12;100.00
7026;BME280;3554;42.132;24.786;2023-04-09T08:38:37;99519.28;;;13.31;100.00
7026;BME280;3554;42.132;24.786;2023-04-09T08:41:04;99529.91;;;13.63;100.00
7026;BME280;3554;42.132;24.786;2023-04-09T08:43:31;99537.06;;;13.43;100.00
7026;BME280;3554;42.132;24.786;2023-04-09T08:46:00;99551.63;;;13.50;100.00
7026;BME280;3554;42.132;24.786;2023-04-09T08:48:27;99541.91;;;13.33;100.00
7026;BME280;3554;42.132;24.786;2023-04-09T08:50:55;99516.25;;;13.21;100.00
7026;BME280;3554;42.132;24.786;2023-04-09T08:53:21;99511.34;;;13.66;100.00
7026;BME280;3554;42.132;24.786;2023-04-09T08:55:50;99527.06;;;14.18;100.00
7026;BME280;3554;42.132;24.786;2023-04-09T08:58:17;99578.47;;;14.25;100.00
7026;BME280;3554;42.132;24.786;2023-04-09T09:00:44;99615.47;;;14.05;100.00
7026;BME280;3554;42.132;24.786;2023-04-09T09:03:11;99694.16;;;13.93;100.00
7026;BME280;3554;42.132;24.786;2023-04-09T09:05:39;99718.53;;;13.97;100.00
7026;BME280;3554;42.132;24.786;2023-04-09T09:08:08;100118.50;;;13.78;100.00
7026;BME280;3554;42.132;24.786;2023-04-09T09:10:40;100008.56;;;13.45;100.00
7026;BME280;3554;42.132;24.786;2023-04-09T09:13:26;99986.41;;;13.50;100.00
7026;BME280;3554;42.132;24.786;2023-04-09T09:15:54;99966.41;;;13.46;100.00
7026;BME280;3554;42.132;24.786;2023-04-09T09:18:38;99950.44;;;13.31;100.00
7026;BME280;3554;42.132;24.786;2023-04-09T09:21:09;99944.25;;;13.52;100.00
7026;BME280;3554;42.132;24.786;2023-04-09T09:23:36;99937.31;;;13.51;100.00
7026;BME280;3554;42.132;24.786;2023-04-09T09:26:10;99923.13;;;13.35;100.00
7026;BME280;3554;42.132;24.786;2023-04-09T09:28:39;99918.34;;;13.43;100.00
7026;BME280;3554;42.132;24.786;2023-04-09T09:31:07;99896.94;;;13.52;100.00
7026;BME280;3554;42.132;24.786;2023-04-09T09:33:34;99899.84;;;13.84;100.00
7026;BME280;3554;42.132;24.786;2023-04-09T09:36:02;99877.84;;;13.85;100.00
7026;BME280;3554;42.132;24.786;2023-04-09T09:38:29;99867.34;;;14.04;100.00
7026;BME280;3554;42.132;24.786;2023-04-09T09:40:57;99864.28;;;14.32;100.00
7026;BME280;3554;42.132;24.786;2023-04-09T09:43:24;99852.75;;;14.34;100.00
7026;BME280;3554;42.132;24.786;2023-04-09T09:45:55;99842.31;;;14.33;100.00
7026;BME280;3554;42.132;24.786;2023-04-09T09:48:22;99837.06;;;14.50;100.00
7026;BME280;3554;42.132;24.786;2023-04-09T09:50:50;99832.97;;;14.61;100.00
7026;BME280;3554;42.132;24.786;2023-04-09T09:53:21;99813.72;;;14.42;100.00
7026;BME280;3554;42.132;24.786;2023-04-09T09:55:52;99830.41;;;14.60;100.00
7026;BME280;3554;42.132;24.786;2023-04-09T09:58:27;99831.81;;;14.84;100.00
7026;BME280;3554;42.132;24.786;2023-04-09T10:00:59;99828.56;;;14.08;100.00
7026;BME280;3554;42.132;24.786;2023-04-09T10:03:28;99821.84;;;14.19;100.00
7026;BME280;3554;42.132;24.786;2023-04-09T10:05:58;99831.50;;;14.19;100.00
7026;BME280;3554;42.132;24.786;2023-04-09T10:08:27;99826.38;;;13.98;100.00
7026;BME280;3554;42.132;24.786;2023-04-09T10:10:58;99815.31;;;13.53;100.00
7026;BME280;3554;42.132;24.786;2023-04-09T10:13:29;99815.41;;;13.70;100.00
7026;BME280;3554;42.132;24.786;2023-04-09T10:16:01;99813.69;;;14.07;100.00
7026;BME280;3554;42.132;24.786;2023-04-09T10:18:28;99777.94;;;13.84;100.00
7026;BME280;3554;42.132;24.786;2023-04-09T10:20:58;99783.06;;;14.23;100.00
7026;BME280;3554;42.132;24.786;2023-04-09T10:23:32;99785.56;;;14.26;100.00
7026;BME280;3554;42.132;24.786;2023-04-09T10:26:01;99790.25;;;14.55;100.00
7026;BME280;3554;42.132;24.786;2023-04-09T10:28:29;99766.88;;;14.49;100.00
7026;BME280;3554;42.132;24.786;2023-04-09T10:30:57;99782.66;;;14.13;100.00
7026;BME280;3554;42.132;24.786;2023-04-09T10:33:26;99775.03;;;13.90;100.00
7026;BME280;3554;42.132;24.786;2023-04-09T10:35:53;99773.19;;;14.28;100.00
7026;BME280;3554;42.132;24.786;2023-04-09T10:38:36;99771.91;;;14.18;100.00
7026;BME280;3554;42.132;24.786;2023-04-09T10:41:07;99762.22;;;13.82;100.00
7026;BME280;3554;42.132;24.786;2023-04-09T10:43:36;99742.69;;;14.05;100.00
7026;BME280;3554;42.132;24.786;2023-04-09T10:46:08;99752.84;;;14.48;100.00
7026;BME280;3554;42.132;24.786;2023-04-09T10:49:06;99771.91;;;14.53;100.00
7026;BME280;3554;42.132;24.786;2023-04-09T10:51:34;99778.41;;;14.29;100.00
7026;BME280;3554;42.132;24.786;2023-04-09T10:54:03;99773.31;;;14.25;100.00
7026;BME280;3554;42.132;24.786;2023-04-09T10:56:30;99773.84;;;14.50;100.00
7026;BME280;3554;42.132;24.786;2023-04-09T10:58:57;99775.69;;;14.82;100.00
7026;BME280;3554;42.132;24.786;2023-04-09T11:01:24;99766.63;;;14.87;100.00
7026;BME280;3554;42.132;24.786;2023-04-09T11:04:07;99762.97;;;15.23;100.00
7026;BME280;3554;42.132;24.786;2023-04-09T11:06:37;99745.31;;;15.57;100.00
7026;BME280;3554;42.132;24.786;2023-04-09T11:09:06;99742.16;;;15.66;100.00
7026;BME280;3554;42.132;24.786;2023-04-09T11:11:32;99755.81;;;15.42;100.00
7026;BME280;3554;42.132;24.786;2023-04-09T11:14:00;99757.91;;;15.35;100.00
7026;BME280;3554;42.132;24.786;2023-04-09T11:16:28;99761.91;;;15.27;100.00
7026;BME280;3554;42.132;24.786;2023-04-09T11:18:55;99746.84;;;15.29;100.00
7026;BME280;3554;42.132;24.786;2023-04-09T11:21:27;99748.38;;;15.33;100.00
7026;BME280;3554;42.132;24.786;2023-04-09T11:23:53;99742.94;;;15.36;100.00
7026;BME280;3554;42.132;24.786;2023-04-09T11:26:24;99752.56;;;15.04;100.00
7026;BME280;3554;42.132;24.786;2023-04-09T11:28:55;99749.47;;;14.96;100.00
7026;BME280;3554;42.132;24.786;2023-04-09T11:31:26;99743.94;;;15.00;100.00
7026;BME280;3554;42.132;24.786;2023-04-09T11:33:54;99747.16;;;14.73;100.00
7026;BME280;3554;42.132;24.786;2023-04-09T11:36:21;99740.97;;;14.57;100.00
7026;BME280;3554;42.132;24.786;2023-04-09T11:38:49;99733.75;;;14.77;100.00
7026;BME280;3554;42.132;24.786;2023-04-09T11:41:16;99730.50;;;14.89;100.00
7026;BME280;3554;42.132;24.786;2023-04-09T11:43:43;99734.75;;;14.92;100.00
7026;BME280;3554;42.132;24.786;2023-04-09T11:46:10;99725.63;;;14.82;100.00
7026;BME280;3554;42.132;24.786;2023-04-09T11:48:37;99712.19;;;14.86;100.00
7026;BME280;3554;42.132;24.786;2023-04-09T11:51:03;99710.22;;;15.07;100.00
7026;BME280;3554;42.132;24.786;2023-04-09T11:53:30;99722.34;;;14.94;100.00
7026;BME280;3554;42.132;24.786;2023-04-09T11:55:58;99710.94;;;15.26;100.00
7026;BME280;3554;42.132;24.786;2023-04-09T11:58:26;99697.94;;;15.39;100.00
7026;BME280;3554;42.132;24.786;2023-04-09T12:00:53;99702.72;;;15.15;98.19
7026;BME280;3554;42.132;24.786;2023-04-09T12:03:27;99711.06;;;15.08;98.76
7026;BME280;3554;42.132;24.786;2023-04-09T12:05:54;99701.25;;;15.27;100.00
7026;BME280;3554;42.132;24.786;2023-04-09T12:08:22;99694.06;;;15.13;100.00
7026;BME280;3554;42.132;24.786;2023-04-09T12:10:50;99686.81;;;15.17;100.00
7026;BME280;3554;42.132;24.786;2023-04-09T12:13:19;99685.22;;;15.30;100.00
7026;BME280;3554;42.132;24.786;2023-04-09T12:15:47;99677.06;;;15.19;99.72
7026;BME280;3554;42.132;24.786;2023-04-09T12:18:15;99701.03;;;15.14;96.99
7026;BME280;3554;42.132;24.786;2023-04-09T12:20:43;99686.50;;;15.23;98.46
7026;BME280;3554;42.132;24.786;2023-04-09T12:23:20;99687.31;;;15.40;99.93
7026;BME280;3554;42.132;24.786;2023-04-09T12:25:46;99689.28;;;15.52;100.00
7026;BME280;3554;42.132;24.786;2023-04-09T12:28:14;99675.25;;;15.52;100.00
7026;BME280;3554;42.132;24.786;2023-04-09T12:30:44;99675.47;;;15.47;100.00
7026;BME280;3554;42.132;24.786;2023-04-09T12:33:11;99678.50;;;15.24;100.00
7026;BME280;3554;42.132;24.786;2023-04-09T12:35:37;99676.75;;;15.40;100.00
7026;BME280;3554;42.132;24.786;2023-04-09T12:38:05;99657.19;;;15.29;100.00
7026;BME280;3554;42.132;24.786;2023-04-09T12:40:31;99661.03;;;14.90;100.00
7026;BME280;3554;42.132;24.786;2023-04-09T12:42:58;99667.03;;;14.77;100.00
7026;BME280;3554;42.132;24.786;2023-04-09T12:45:25;99668.97;;;14.73;100.00
7026;BME280;3554;42.132;24.786;2023-04-09T12:47:53;99655.81;;;14.56;100.00
7026;BME280;3554;42.132;24.786;2023-04-09T12:50:20;99661.22;;;14.70;100.00
7026;BME280;3554;42.132;24.786;2023-04-09T12:52:47;99649.97;;;14.84;100.00
7026;BME280;3554;42.132;24.786;2023-04-09T12:55:14;99649.22;;;14.97;100.00
7026;BME280;3554;42.132;24.786;2023-04-09T12:57:44;99559.22;;;14.72;100.00
7026;BME280;3554;42.132;24.786;2023-04-09T13:00:14;99640.91;;;15.36;100.00
7026;BME280;3554;42.132;24.786;2023-04-09T13:02:41;99640.84;;;15.38;100.00
7026;BME280;3554;42.132;24.786;2023-04-09T13:05:10;99634.63;;;15.39;100.00
7026;BME280;3554;42.132;24.786;2023-04-09T13:07:36;99644.09;;;15.58;100.00
7026;BME280;3554;42.132;24.786;2023-04-09T13:10:04;99634.44;;;15.73;100.00